sensor_id;sensor_type;location;lat;lon;timestamp;pressure;altitude;pressure_sealevel;temperature;humidity
13476;BME280;6810;63.824;20.288;2023-03-23T00:02:14;98779.00;;;0.24;94.39
13476;BME280;6810;63.824;20.288;2023-03-23T00:04:41;98775.59;;;0.22;93.95
13476;BME280;6810;63.824;20.288;2023-03-23T00:07:08;98771.34;;;0.20;94.32
13476;BME280;6810;63.824;20.288;2023-03-23T00:09:34;98775.81;;;0.18;95.07
13476;BME280;6810;63.824;20.288;2023-03-23T00:12:07;98772.34;;;0.17;94.57
13476;BME280;6810;63.824;20.288;2023-03-23T00:14:33;98777.66;;;0.16;94.49
13476;BME280;6810;63.824;20.288;2023-03-23T00:17:11;98775.09;;;0.14;94.50
13476;BME280;6810;63.824;20.288;2023-03-23T00:19:40;98753.13;;;-0.01;94.37
13476;BME280;6810;63.824;20.288;2023-03-23T00:22:16;98770.94;;;0.10;94.95
13476;BME280;6810;63.824;20.288;2023-03-23T00:24:43;98768.41;;;0.09;94.71
13476;BME280;6810;63.824;20.288;2023-03-23T00:27:10;98746.31;;;-0.05;94.90
13476;BME280;6810;63.824;20.288;2023-03-23T00:29:38;98759.91;;;0.03;95.39
13476;BME280;6810;63.824;20.288;2023-03-23T00:32:06;98755.75;;;-0.01;95.05
13476;BME280;6810;63.824;20.288;2023-03-23T00:34:38;98744.84;;;-0.10;95.32
13476;BME280;6810;63.824;20.288;2023-03-23T00:37:06;98767.91;;;0.00;95.24
13476;BME280;6810;63.824;20.288;2023-03-23T00:39:33;98766.22;;;-0.01;95.38
13476;BME280;6810;63.824;20.288;2023-03-23T00:41:59;98758.72;;;-0.08;95.34
13476;BME280;6810;63.824;20.288;2023-03-23T00:44:29;98746.63;;;-0.11;95.60
13476;BME280;6810;63.824;20.288;2023-03-23T00:46:56;98753.50;;;-0.08;95.47
13476;BME280;6810;63.824;20.288;2023-03-23T00:49:24;98748.34;;;-0.10;95.65
13476;BME280;6810;63.824;20.288;2023-03-23T00:51:56;98752.78;;;-0.12;95.64
13476;BME280;6810;63.824;20.288;2023-03-23T00:54:24;98755.47;;;-0.13;96.30
13476;BME280;6810;63.824;20.288;2023-03-23T00:56:50;98750.38;;;-0.16;95.36
13476;BME280;6810;63.824;20.288;2023-03-23T00:59:16;98759.16;;;-0.17;95.95
13476;BME280;6810;63.824;20.288;2023-03-23T01:01:43;98738.31;;;-0.19;95.93
13476;BME280;6810;63.824;20.288;2023-03-23T01:04:10;98748.75;;;-0.19;96.28
13476;BME280;6810;63.824;20.288;2023-03-23T01:06:39;98753.22;;;-0.21;95.46
13476;BME280;6810;63.824;20.288;2023-03-23T01:09:07;98748.06;;;-0.22;95.96
13476;BME280;6810;63.824;20.288;2023-03-23T01:11:34;98742.97;;;-0.25;96.06
13476;BME280;6810;63.824;20.288;2023-03-23T01:14:01;98735.41;;;-0.31;95.69
13476;BME280;6810;63.824;20.288;2023-03-23T01:16:27;98731.13;;;-0.34;95.50
13476;BME280;6810;63.824;20.288;2023-03-23T01:18:53;98732.78;;;-0.31;95.95
13476;BME280;6810;63.824;20.288;2023-03-23T01:21:20;98748.41;;;-0.30;96.02
13476;BME280;6810;63.824;20.288;2023-03-23T01:23:46;98751.09;;;-0.31;95.83
13476;BME280;6810;63.824;20.288;2023-03-23T01:26:15;98748.56;;;-0.33;96.27
13476;BME280;6810;63.824;20.288;2023-03-23T01:28:42;98746.06;;;-0.36;96.33
13476;BME280;6810;63.824;20.288;2023-03-23T01:31:12;98747.75;;;-0.35;96.25
13476;BME280;6810;63.824;20.288;2023-03-23T01:33:39;98750.44;;;-0.36;96.02
13476;BME280;6810;63.824;20.288;2023-03-23T01:36:12;98754.91;;;-0.38;96.35
13476;BME280;6810;63.824;20.288;2023-03-23T01:38:41;98748.03;;;-0.41;96.48
13476;BME280;6810;63.824;20.288;2023-03-23T01:41:08;98749.88;;;-0.43;96.31
13476;BME280;6810;63.824;20.288;2023-03-23T01:43:34;98742.09;;;-0.44;96.22
13476;BME280;6810;63.824;20.288;2023-03-23T01:46:00;98743.09;;;-0.47;96.09
13476;BME280;6810;63.824;20.288;2023-03-23T01:51:15;98708.50;;;-0.72;96.40
13476;BME280;6810;63.824;20.288;2023-03-23T01:53:54;98747.69;;;-0.52;96.19
13476;BME280;6810;63.824;20.288;2023-03-23T01:56:24;98742.53;;;-0.53;96.07
13476;BME280;6810;63.824;20.288;2023-03-23T01:58:53;98743.53;;;-0.56;96.43
13476;BME280;6810;63.824;20.288;2023-03-23T02:01:22;98742.81;;;-0.59;96.25
13476;BME280;6810;63.824;20.288;2023-03-23T02:04:09;98740.25;;;-0.61;96.15
13476;BME280;6810;63.824;20.288;2023-03-23T02:06:56;98733.69;;;-0.69;96.62
13476;BME280;6810;63.824;20.288;2023-03-23T02:09:42;98727.00;;;-0.76;96.74
13476;BME280;6810;63.824;20.288;2023-03-23T02:12:32;98713.53;;;-0.86;96.52
13476;BME280;6810;63.824;20.288;2023-03-23T02:15:18;98743.28;;;-0.70;96.78
13476;BME280;6810;63.824;20.288;2023-03-23T02:24:31;98739.25;;;-0.77;96.57
13476;BME280;6810;63.824;20.288;2023-03-23T02:30:37;98743.91;;;-0.83;96.64
13476;BME280;6810;63.824;20.288;2023-03-23T02:36:50;98744.13;;;-0.88;97.05
13476;BME280;6810;63.824;20.288;2023-03-23T02:39:42;98735.47;;;-0.90;96.76
13476;BME280;6810;63.824;20.288;2023-03-23T02:42:31;98729.50;;;-0.92;97.42
13476;BME280;6810;63.824;20.288;2023-03-23T02:45:20;98715.97;;;-1.01;97.20
13476;BME280;6810;63.824;20.288;2023-03-23T02:48:09;98732.31;;;-0.96;97.15
13476;BME280;6810;63.824;20.288;2023-03-23T02:50:58;98733.19;;;-0.97;96.49
13476;BME280;6810;63.824;20.288;2023-03-23T02:53:48;98738.50;;;-0.99;96.80
13476;BME280;6810;63.824;20.288;2023-03-23T02:56:38;98736.03;;;-1.02;96.51
13476;BME280;6810;63.824;20.288;2023-03-23T02:59:29;98702.00;;;-1.20;97.22
13476;BME280;6810;63.824;20.288;2023-03-23T03:02:23;98743.28;;;-1.08;97.06
13476;BME280;6810;63.824;20.288;2023-03-23T03:05:33;98731.06;;;-1.08;96.71
13476;BME280;6810;63.824;20.288;2023-03-23T03:08:29;98737.28;;;-1.10;96.37
13476;BME280;6810;63.824;20.288;2023-03-23T03:11:18;98747.81;;;-1.12;97.33
13476;BME280;6810;63.824;20.288;2023-03-23T03:14:09;98757.47;;;-1.14;96.71
13476;BME280;6810;63.824;20.288;2023-03-23T03:17:03;98743.66;;;-1.17;97.13
13476;BME280;6810;63.824;20.288;2023-03-23T03:19:56;98727.66;;;-1.30;96.60
13476;BME280;6810;63.824;20.288;2023-03-23T03:22:44;98749.94;;;-1.21;96.89
13476;BME280;6810;63.824;20.288;2023-03-23T03:25:31;98752.75;;;-1.26;96.93
13476;BME280;6810;63.824;20.288;2023-03-23T03:28:26;98755.38;;;-1.26;96.63
13476;BME280;6810;63.824;20.288;2023-03-23T03:31:12;98756.31;;;-1.27;96.84
13476;BME280;6810;63.824;20.288;2023-03-23T03:33:58;98735.53;;;-1.50;96.55
13476;BME280;6810;63.824;20.288;2023-03-23T03:36:48;98756.78;;;-1.39;96.71
13476;BME280;6810;63.824;20.288;2023-03-23T03:39:35;98758.69;;;-1.42;96.88
13476;BME280;6810;63.824;20.288;2023-03-23T03:42:21;98758.56;;;-1.39;97.64
13476;BME280;6810;63.824;20.288;2023-03-23T03:45:10;98767.97;;;-1.35;97.48
13476;BME280;6810;63.824;20.288;2023-03-23T03:47:56;98773.25;;;-1.37;97.27
13476;BME280;6810;63.824;20.288;2023-03-23T03:50:42;98775.88;;;-1.37;97.55
13476;BME280;6810;63.824;20.288;2023-03-23T03:53:32;98775.06;;;-1.39;96.48
13476;BME280;6810;63.824;20.288;2023-03-23T03:56:17;98766.47;;;-1.41;96.90
13476;BME280;6810;63.824;20.288;2023-03-23T03:59:23;98768.41;;;-1.46;96.44
13476;BME280;6810;63.824;20.288;2023-03-23T04:02:28;98772.72;;;-1.45;97.43
13476;BME280;6810;63.824;20.288;2023-03-23T04:05:16;98771.88;;;-1.45;97.21
13476;BME280;6810;63.824;20.288;2023-03-23T04:08:03;98764.56;;;-1.57;97.07
13476;BME280;6810;63.824;20.288;2023-03-23T04:10:50;98783.22;;;-1.46;96.38
13476;BME280;6810;63.824;20.288;2023-03-23T04:13:36;98787.69;;;-1.48;96.72
13476;BME280;6810;63.824;20.288;2023-03-23T04:16:25;98789.50;;;-1.50;97.15
13476;BME280;6810;63.824;20.288;2023-03-23T04:19:10;98793.03;;;-1.51;96.45
13476;BME280;6810;63.824;20.288;2023-03-23T04:21:56;98796.72;;;-1.57;96.78
13476;BME280;6810;63.824;20.288;2023-03-23T04:24:44;98807.16;;;-1.57;97.11
13476;BME280;6810;63.824;20.288;2023-03-23T04:27:31;98803.72;;;-1.57;96.31
13476;BME280;6810;63.824;20.288;2023-03-23T04:30:22;98802.94;;;-1.59;96.03
13476;BME280;6810;63.824;20.288;2023-03-23T04:33:10;98806.50;;;-1.62;96.57
13476;BME280;6810;63.824;20.288;2023-03-23T04:36:00;98813.56;;;-1.64;96.42
13476;BME280;6810;63.824;20.288;2023-03-23T04:38:56;98809.22;;;-1.65;95.88
13476;BME280;6810;63.824;20.288;2023-03-23T04:41:43;98824.97;;;-1.66;96.92
13476;BME280;6810;63.824;20.288;2023-03-23T04:44:47;98837.25;;;-1.68;96.77
13476;BME280;6810;63.824;20.288;2023-03-23T04:47:39;98793.84;;;-1.93;96.62
13476;BME280;6810;63.824;20.288;2023-03-23T04:50:34;98832.97;;;-1.71;96.53
13476;BME280;6810;63.824;20.288;2023-03-23T04:53:26;98838.31;;;-1.74;96.61
13476;BME280;6810;63.824;20.288;2023-03-23T04:56:13;98787.81;;;-2.16;96.21
13476;BME280;6810;63.824;20.288;2023-03-23T04:59:06;98853.22;;;-1.76;96.00
13476;BME280;6810;63.824;20.288;2023-03-23T05:02:10;98843.13;;;-1.85;95.94
13476;BME280;6810;63.824;20.288;2023-03-23T05:04:57;98855.94;;;-1.79;96.38
13476;BME280;6810;63.824;20.288;2023-03-23T05:07:43;98865.59;;;-1.81;95.70
13476;BME280;6810;63.824;20.288;2023-03-23T05:10:32;98880.31;;;-1.80;95.35
13476;BME280;6810;63.824;20.288;2023-03-23T05:13:19;98884.78;;;-1.82;96.13
13476;BME280;6810;63.824;20.288;2023-03-23T05:16:06;98883.06;;;-1.83;95.26
13476;BME280;6810;63.824;20.288;2023-03-23T05:18:52;98883.06;;;-1.83;95.76
13476;BME280;6810;63.824;20.288;2023-03-23T05:21:38;98882.41;;;-1.88;95.14
13476;BME280;6810;63.824;20.288;2023-03-23T05:24:24;98892.66;;;-1.84;94.52
13476;BME280;6810;63.824;20.288;2023-03-23T05:27:10;98891.88;;;-1.86;95.28
13476;BME280;6810;63.824;20.288;2023-03-23T05:30:00;98896.97;;;-1.83;95.04
13476;BME280;6810;63.824;20.288;2023-03-23T05:32:48;98918.78;;;-1.84;94.98
13476;BME280;6810;63.824;20.288;2023-03-23T05:35:57;98911.16;;;-1.90;95.18
13476;BME280;6810;63.824;20.288;2023-03-23T05:39:08;98924.09;;;-1.87;94.80
13476;BME280;6810;63.824;20.288;2023-03-23T05:42:12;98925.91;;;-1.89;95.27
13476;BME280;6810;63.824;20.288;2023-03-23T05:45:09;98923.59;;;-1.96;94.10
13476;BME280;6810;63.824;20.288;2023-03-23T05:47:55;98915.94;;;-2.01;94.76
13476;BME280;6810;63.824;20.288;2023-03-23T05:50:30;98953.03;;;-1.93;95.16
13476;BME280;6810;63.824;20.288;2023-03-23T05:52:57;98968.72;;;-1.94;94.32
13476;BME280;6810;63.824;20.288;2023-03-23T05:55:24;98877.47;;;-2.42;94.58
13476;BME280;6810;63.824;20.288;2023-03-23T05:58:00;98957.50;;;-1.96;94.34
13476;BME280;6810;63.824;20.288;2023-03-23T06:00:31;98967.84;;;-1.93;93.89
13476;BME280;6810;63.824;20.288;2023-03-23T06:03:10;98970.44;;;-1.93;94.05
13476;BME280;6810;63.824;20.288;2023-03-23T06:05:45;98964.38;;;-1.94;94.82
13476;BME280;6810;63.824;20.288;2023-03-23T06:08:15;98966.13;;;-1.94;94.20
13476;BME280;6810;63.824;20.288;2023-03-23T06:10:41;98993.06;;;-1.94;93.70
13476;BME280;6810;63.824;20.288;2023-03-23T06:13:07;98953.69;;;-2.11;94.44
13476;BME280;6810;63.824;20.288;2023-03-23T06:15:42;98989.88;;;-2.02;94.26
13476;BME280;6810;63.824;20.288;2023-03-23T06:18:21;98998.28;;;-1.94;94.41
13476;BME280;6810;63.824;20.288;2023-03-23T06:21:24;98999.22;;;-1.95;94.69
13476;BME280;6810;63.824;20.288;2023-03-23T06:24:06;98999.44;;;-2.01;93.72
13476;BME280;6810;63.824;20.288;2023-03-23T06:26:35;98977.38;;;-2.17;93.55
13476;BME280;6810;63.824;20.288;2023-03-23T06:29:05;98993.72;;;-2.12;93.55
13476;BME280;6810;63.824;20.288;2023-03-23T06:31:41;99010.53;;;-1.96;94.53
13476;BME280;6810;63.824;20.288;2023-03-23T06:34:08;99027.91;;;-1.95;93.69
13476;BME280;6810;63.824;20.288;2023-03-23T06:36:55;99007.09;;;-1.96;93.32
13476;BME280;6810;63.824;20.288;2023-03-23T06:39:44;99025.41;;;-1.98;93.79
13476;BME280;6810;63.824;20.288;2023-03-23T06:42:17;99027.16;;;-1.98;93.78
13476;BME280;6810;63.824;20.288;2023-03-23T06:44:50;99034.13;;;-1.99;93.58
13476;BME280;6810;63.824;20.288;2023-03-23T06:47:16;99047.28;;;-2.02;94.05
13476;BME280;6810;63.824;20.288;2023-03-23T06:49:46;99049.84;;;-2.00;93.17
13476;BME280;6810;63.824;20.288;2023-03-23T06:52:25;99064.63;;;-1.99;92.94
13476;BME280;6810;63.824;20.288;2023-03-23T06:54:52;99014.19;;;-2.24;93.07
13476;BME280;6810;63.824;20.288;2023-03-23T06:57:19;99019.34;;;-2.23;93.18
13476;BME280;6810;63.824;20.288;2023-03-23T06:59:47;99063.66;;;-1.97;92.93
13476;BME280;6810;63.824;20.288;2023-03-23T07:02:14;99068.88;;;-1.97;92.75
13476;BME280;6810;63.824;20.288;2023-03-23T07:04:42;99060.50;;;-2.06;93.72
13476;BME280;6810;63.824;20.288;2023-03-23T07:07:28;99080.06;;;-1.93;93.91
13476;BME280;6810;63.824;20.288;2023-03-23T07:10:25;99084.47;;;-1.95;93.55
13476;BME280;6810;63.824;20.288;2023-03-23T07:13:13;99076.81;;;-2.00;92.77
13476;BME280;6810;63.824;20.288;2023-03-23T07:16:00;99099.91;;;-1.89;92.80
13476;BME280;6810;63.824;20.288;2023-03-23T07:18:46;99099.03;;;-1.88;93.83
13476;BME280;6810;63.824;20.288;2023-03-23T07:21:32;99104.19;;;-1.87;92.70
13476;BME280;6810;63.824;20.288;2023-03-23T07:24:20;99055.75;;;-2.20;92.52
13476;BME280;6810;63.824;20.288;2023-03-23T07:27:15;99111.06;;;-1.84;92.81
13476;BME280;6810;63.824;20.288;2023-03-23T07:30:02;99124.06;;;-1.83;92.98
13476;BME280;6810;63.824;20.288;2023-03-23T07:32:48;99127.59;;;-1.84;92.62
13476;BME280;6810;63.824;20.288;2023-03-23T07:35:35;99127.47;;;-1.81;93.74
13476;BME280;6810;63.824;20.288;2023-03-23T07:38:21;99152.66;;;-1.80;93.14
13476;BME280;6810;63.824;20.288;2023-03-23T07:41:07;99146.59;;;-1.80;92.57
13476;BME280;6810;63.824;20.288;2023-03-23T07:43:54;99162.19;;;-1.79;92.76
13476;BME280;6810;63.824;20.288;2023-03-23T07:46:42;99174.41;;;-1.79;92.69
13476;BME280;6810;63.824;20.288;2023-03-23T07:49:31;99149.72;;;-1.95;92.93
13476;BME280;6810;63.824;20.288;2023-03-23T07:52:38;99198.69;;;-1.77;92.79
13476;BME280;6810;63.824;20.288;2023-03-23T07:55:27;99192.66;;;-1.77;92.61
13476;BME280;6810;63.824;20.288;2023-03-23T07:58:38;99193.56;;;-1.80;92.32
13476;BME280;6810;63.824;20.288;2023-03-23T08:01:24;99209.09;;;-1.76;92.02
13476;BME280;6810;63.824;20.288;2023-03-23T08:04:31;99206.53;;;-1.77;91.80
13476;BME280;6810;63.824;20.288;2023-03-23T08:07:35;99213.38;;;-1.73;92.39
13476;BME280;6810;63.824;20.288;2023-03-23T08:10:44;99231.59;;;-1.71;91.82
13476;BME280;6810;63.824;20.288;2023-03-23T08:13:42;99239.38;;;-1.70;92.58
13476;BME280;6810;63.824;20.288;2023-03-23T08:16:47;99244.50;;;-1.67;91.77
13476;BME280;6810;63.824;20.288;2023-03-23T08:19:46;99268.78;;;-1.65;91.77
13476;BME280;6810;63.824;20.288;2023-03-23T08:22:55;99264.38;;;-1.63;91.57
13476;BME280;6810;63.824;20.288;2023-03-23T08:25:27;99266.16;;;-1.65;92.31
13476;BME280;6810;63.824;20.288;2023-03-23T08:28:07;99273.88;;;-1.60;92.39
13476;BME280;6810;63.824;20.288;2023-03-23T08:30:56;99290.38;;;-1.60;91.66
13476;BME280;6810;63.824;20.288;2023-03-23T08:33:48;99293.75;;;-1.56;91.84
13476;BME280;6810;63.824;20.288;2023-03-23T08:36:39;99274.97;;;-1.67;91.58
13476;BME280;6810;63.824;20.288;2023-03-23T08:39:45;99304.06;;;-1.52;91.88
13476;BME280;6810;63.824;20.288;2023-03-23T08:42:47;99227.28;;;-2.00;91.71
13476;BME280;6810;63.824;20.288;2023-03-23T08:46:12;99312.00;;;-1.55;91.97
13476;BME280;6810;63.824;20.288;2023-03-23T08:49:23;99332.63;;;-1.47;92.02
13476;BME280;6810;63.824;20.288;2023-03-23T08:52:34;99322.19;;;-1.47;91.62
13476;BME280;6810;63.824;20.288;2023-03-23T08:55:43;99327.47;;;-1.49;90.93
13476;BME280;6810;63.824;20.288;2023-03-23T08:58:47;99327.50;;;-1.50;91.25
13476;BME280;6810;63.824;20.288;2023-03-23T09:01:38;99338.81;;;-1.50;90.90
13476;BME280;6810;63.824;20.288;2023-03-23T09:04:42;99212.47;;;-2.26;91.04
13476;BME280;6810;63.824;20.288;2023-03-23T09:08:00;99337.19;;;-1.54;91.42
13476;BME280;6810;63.824;20.288;2023-03-23T09:10:46;99349.19;;;-1.47;91.24
13476;BME280;6810;63.824;20.288;2023-03-23T09:13:33;99371.81;;;-1.47;90.62
13476;BME280;6810;63.824;20.288;2023-03-23T09:16:19;99368.34;;;-1.48;91.25
13476;BME280;6810;63.824;20.288;2023-03-23T09:19:05;99358.75;;;-1.47;90.81
13476;BME280;6810;63.824;20.288;2023-03-23T09:21:51;99372.63;;;-1.45;90.73
13476;BME280;6810;63.824;20.288;2023-03-23T09:24:37;99384.78;;;-1.44;91.28
13476;BME280;6810;63.824;20.288;2023-03-23T09:27:23;99294.13;;;-1.95;90.57
13476;BME280;6810;63.824;20.288;2023-03-23T09:30:11;99384.78;;;-1.44;90.22
13476;BME280;6810;63.824;20.288;2023-03-23T09:33:00;99372.84;;;-1.51;89.94
13476;BME280;6810;63.824;20.288;2023-03-23T09:35:46;99393.53;;;-1.45;90.09
13476;BME280;6810;63.824;20.288;2023-03-23T09:38:31;99397.91;;;-1.46;91.11
13476;BME280;6810;63.824;20.288;2023-03-23T09:41:59;99403.97;;;-1.45;90.74
13476;BME280;6810;63.824;20.288;2023-03-23T09:48:36;99421.34;;;-1.44;89.72
13476;BME280;6810;63.824;20.288;2023-03-23T09:51:46;99425.66;;;-1.43;89.79
13476;BME280;6810;63.824;20.288;2023-03-23T09:54:38;99431.75;;;-1.43;90.34
13476;BME280;6810;63.824;20.288;2023-03-23T09:57:36;99431.75;;;-1.43;89.82
13476;BME280;6810;63.824;20.288;2023-03-23T10:00:30;99433.47;;;-1.42;89.61
13476;BME280;6810;63.824;20.288;2023-03-23T10:03:21;99424.97;;;-1.48;90.30
13476;BME280;6810;63.824;20.288;2023-03-23T10:06:13;99445.59;;;-1.39;89.41
13476;BME280;6810;63.824;20.288;2023-03-23T10:09:02;99455.94;;;-1.36;89.78
13476;BME280;6810;63.824;20.288;2023-03-23T10:18:02;99472.19;;;-1.27;90.22
13476;BME280;6810;63.824;20.288;2023-03-23T10:20:59;99479.94;;;-1.24;90.25
13476;BME280;6810;63.824;20.288;2023-03-23T10:23:59;99479.84;;;-1.21;89.20
13476;BME280;6810;63.824;20.288;2023-03-23T10:27:10;99497.19;;;-1.18;89.69
13476;BME280;6810;63.824;20.288;2023-03-23T10:30:08;99486.69;;;-1.17;89.23
13476;BME280;6810;63.824;20.288;2023-03-23T10:33:11;99497.13;;;-1.17;89.03
13476;BME280;6810;63.824;20.288;2023-03-23T10:36:05;99504.00;;;-1.14;89.34
13476;BME280;6810;63.824;20.288;2023-03-23T10:39:04;99502.25;;;-1.14;89.06
13476;BME280;6810;63.824;20.288;2023-03-23T10:41:52;99507.44;;;-1.12;89.31
13476;BME280;6810;63.824;20.288;2023-03-23T10:44:38;99520.47;;;-1.11;89.39
13476;BME280;6810;63.824;20.288;2023-03-23T10:47:24;99527.34;;;-1.08;89.69
13476;BME280;6810;63.824;20.288;2023-03-23T10:50:14;99535.19;;;-1.08;88.86
13476;BME280;6810;63.824;20.288;2023-03-23T10:53:07;99537.81;;;-1.08;89.01
13476;BME280;6810;63.824;20.288;2023-03-23T10:55:57;99548.25;;;-1.08;88.11
13476;BME280;6810;63.824;20.288;2023-03-23T10:58:43;99554.53;;;-1.14;88.69
13476;BME280;6810;63.824;20.288;2023-03-23T11:01:31;99563.16;;;-1.10;88.09
13476;BME280;6810;63.824;20.288;2023-03-23T11:04:18;99584.81;;;-1.07;88.85
13476;BME280;6810;63.824;20.288;2023-03-23T11:07:05;99590.84;;;-1.05;88.26
13476;BME280;6810;63.824;20.288;2023-03-23T11:09:54;99594.44;;;-1.07;87.92
13476;BME280;6810;63.824;20.288;2023-03-23T11:12:44;99587.50;;;-1.10;88.71
13476;BME280;6810;63.824;20.288;2023-03-23T11:15:34;99601.25;;;-1.03;87.71
13476;BME280;6810;63.824;20.288;2023-03-23T11:18:40;99603.88;;;-1.03;88.25
13476;BME280;6810;63.824;20.288;2023-03-23T11:21:27;99584.34;;;-1.19;88.30
13476;BME280;6810;63.824;20.288;2023-03-23T11:24:13;99564.72;;;-1.34;87.39
13476;BME280;6810;63.824;20.288;2023-03-23T11:27:00;99609.16;;;-1.05;88.08
13476;BME280;6810;63.824;20.288;2023-03-23T11:29:52;99612.72;;;-1.07;88.20
13476;BME280;6810;63.824;20.288;2023-03-23T11:32:43;99623.09;;;-1.04;88.19
13476;BME280;6810;63.824;20.288;2023-03-23T11:35:30;99621.25;;;-1.02;88.07
13476;BME280;6810;63.824;20.288;2023-03-23T11:38:18;99619.53;;;-1.02;87.33
13476;BME280;6810;63.824;20.288;2023-03-23T11:41:10;99624.84;;;-1.05;87.68
13476;BME280;6810;63.824;20.288;2023-03-23T11:43:56;99615.25;;;-1.04;87.80
13476;BME280;6810;63.824;20.288;2023-03-23T11:47:09;99611.78;;;-1.05;87.27
13476;BME280;6810;63.824;20.288;2023-03-23T11:58:58;99624.00;;;-1.07;87.37
13476;BME280;6810;63.824;20.288;2023-03-23T12:01:53;99632.72;;;-1.06;87.08
13476;BME280;6810;63.824;20.288;2023-03-23T12:04:57;99643.97;;;-1.03;87.11
13476;BME280;6810;63.824;20.288;2023-03-23T12:13:42;99628.09;;;-0.97;86.97
13476;BME280;6810;63.824;20.288;2023-03-23T12:23:31;99639.19;;;-0.89;87.05
13476;BME280;6810;63.824;20.288;2023-03-23T12:26:28;99633.03;;;-0.88;87.06
13476;BME280;6810;63.824;20.288;2023-03-23T12:32:27;99631.22;;;-0.84;86.72
13476;BME280;6810;63.824;20.288;2023-03-23T12:42:40;99647.72;;;-0.84;85.96
13476;BME280;6810;63.824;20.288;2023-03-23T12:45:18;99645.97;;;-0.83;85.91
13476;BME280;6810;63.824;20.288;2023-03-23T12:48:10;99647.69;;;-0.82;85.62
13476;BME280;6810;63.824;20.288;2023-03-23T12:51:27;99653.78;;;-0.82;86.61
13476;BME280;6810;63.824;20.288;2023-03-23T12:54:16;99669.38;;;-0.79;86.03
13476;BME280;6810;63.824;20.288;2023-03-23T12:57:13;99663.47;;;-0.85;86.02
13476;BME280;6810;63.824;20.288;2023-03-23T13:00:12;99673.59;;;-0.75;86.42
13476;BME280;6810;63.824;20.288;2023-03-23T13:06:15;99697.88;;;-0.70;86.63
13476;BME280;6810;63.824;20.288;2023-03-23T13:12:10;99709.91;;;-0.63;86.13
13476;BME280;6810;63.824;20.288;2023-03-23T13:15:18;99688.88;;;-0.60;85.99
13476;BME280;6810;63.824;20.288;2023-03-23T13:24:12;99707.59;;;-0.46;85.98
13476;BME280;6810;63.824;20.288;2023-03-23T13:27:00;99692.22;;;-0.56;86.12
13476;BME280;6810;63.824;20.288;2023-03-23T13:29:46;99706.63;;;-0.42;85.92
13476;BME280;6810;63.824;20.288;2023-03-23T13:32:37;99695.25;;;-0.41;85.58
13476;BME280;6810;63.824;20.288;2023-03-23T13:35:23;99691.72;;;-0.40;85.86
13476;BME280;6810;63.824;20.288;2023-03-23T13:38:27;99630.78;;;-0.71;85.75
13476;BME280;6810;63.824;20.288;2023-03-23T13:41:18;99675.19;;;-0.40;85.46
13476;BME280;6810;63.824;20.288;2023-03-23T13:44:15;99680.50;;;-0.43;85.49
13476;BME280;6810;63.824;20.288;2023-03-23T13:53:00;99671.41;;;-0.59;85.18
13476;BME280;6810;63.824;20.288;2023-03-23T13:56:06;99690.34;;;-0.51;85.36
13476;BME280;6810;63.824;20.288;2023-03-23T13:59:05;99690.47;;;-0.56;84.76
13476;BME280;6810;63.824;20.288;2023-03-23T14:01:53;99689.56;;;-0.55;85.18
13476;BME280;6810;63.824;20.288;2023-03-23T14:04:40;99684.44;;;-0.58;84.63
13476;BME280;6810;63.824;20.288;2023-03-23T14:07:26;99678.41;;;-0.60;85.01
13476;BME280;6810;63.824;20.288;2023-03-23T14:10:16;99689.75;;;-0.61;84.40
13476;BME280;6810;63.824;20.288;2023-03-23T14:13:10;99676.09;;;-0.70;84.82
13476;BME280;6810;63.824;20.288;2023-03-23T14:16:05;99641.94;;;-0.93;84.47
13476;BME280;6810;63.824;20.288;2023-03-23T14:19:00;99699.44;;;-0.63;84.69
13476;BME280;6810;63.824;20.288;2023-03-23T14:21:55;99700.22;;;-0.61;84.80
13476;BME280;6810;63.824;20.288;2023-03-23T14:24:41;99696.72;;;-0.60;84.03
13476;BME280;6810;63.824;20.288;2023-03-23T14:27:27;99701.09;;;-0.60;83.94
13476;BME280;6810;63.824;20.288;2023-03-23T14:30:17;99676.13;;;-0.72;84.12
13476;BME280;6810;63.824;20.288;2023-03-23T14:33:06;99706.28;;;-0.59;84.31
13476;BME280;6810;63.824;20.288;2023-03-23T14:35:52;99698.47;;;-0.60;83.83
13476;BME280;6810;63.824;20.288;2023-03-23T14:38:39;99700.22;;;-0.61;84.04
13476;BME280;6810;63.824;20.288;2023-03-23T14:41:28;99694.09;;;-0.60;83.68
13476;BME280;6810;63.824;20.288;2023-03-23T14:44:25;99668.34;;;-0.73;83.89
13476;BME280;6810;63.824;20.288;2023-03-23T14:50:23;99699.50;;;-0.66;83.23
13476;BME280;6810;63.824;20.288;2023-03-23T14:53:21;99701.50;;;-0.74;83.36
13476;BME280;6810;63.824;20.288;2023-03-23T14:56:13;99702.38;;;-0.75;83.12
13476;BME280;6810;63.824;20.288;2023-03-23T14:59:04;99722.25;;;-0.68;83.25
13476;BME280;6810;63.824;20.288;2023-03-23T15:01:51;99719.72;;;-0.71;83.39
13476;BME280;6810;63.824;20.288;2023-03-23T15:04:38;99728.50;;;-0.73;83.26
13476;BME280;6810;63.824;20.288;2023-03-23T15:07:30;99725.91;;;-0.75;82.98
13476;BME280;6810;63.824;20.288;2023-03-23T15:10:19;99737.28;;;-0.76;82.43
13476;BME280;6810;63.824;20.288;2023-03-23T15:13:05;99735.69;;;-0.80;82.38
13476;BME280;6810;63.824;20.288;2023-03-23T15:15:51;99708.28;;;-0.97;82.87
13476;BME280;6810;63.824;20.288;2023-03-23T15:18:38;99734.84;;;-0.82;82.97
13476;BME280;6810;63.824;20.288;2023-03-23T15:21:31;99734.03;;;-0.84;82.55
13476;BME280;6810;63.824;20.288;2023-03-23T15:24:32;99732.41;;;-0.88;82.32
13476;BME280;6810;63.824;20.288;2023-03-23T15:27:29;99745.41;;;-0.85;82.44
13476;BME280;6810;63.824;20.288;2023-03-23T15:30:28;99743.75;;;-0.87;82.27
13476;BME280;6810;63.824;20.288;2023-03-23T15:33:15;99752.47;;;-0.88;81.71
13476;BME280;6810;63.824;20.288;2023-03-23T15:36:07;99756.03;;;-0.91;81.70
13476;BME280;6810;63.824;20.288;2023-03-23T15:38:53;99732.97;;;-1.07;81.87
13476;BME280;6810;63.824;20.288;2023-03-23T15:41:49;99667.69;;;-1.41;81.80
13476;BME280;6810;63.824;20.288;2023-03-23T15:44:36;99744.06;;;-0.99;81.96
13476;BME280;6810;63.824;20.288;2023-03-23T15:47:21;99739.72;;;-1.00;82.15
13476;BME280;6810;63.824;20.288;2023-03-23T15:50:39;99734.59;;;-1.03;81.58
13476;BME280;6810;63.824;20.288;2023-03-23T15:53:30;99732.97;;;-1.07;81.45
13476;BME280;6810;63.824;20.288;2023-03-23T15:56:17;99740.03;;;-1.11;81.22
13476;BME280;6810;63.824;20.288;2023-03-23T15:59:03;99748.78;;;-1.12;81.35
13476;BME280;6810;63.824;20.288;2023-03-23T16:01:50;99737.78;;;-1.24;81.80
13476;BME280;6810;63.824;20.288;2023-03-23T16:04:37;99753.28;;;-1.17;81.88